sensor_id;sensor_type;location;lat;lon;timestamp;P1;durP1;ratioP1;P2;durP2;ratioP2
3274;SDS011;1649;53.672;10.064;2023-12-28T00:01:23;6.77;;;3.27;;
3274;SDS011;1649;53.672;10.064;2023-12-28T00:03:49;6.60;;;3.57;;
3274;SDS011;1649;53.672;10.064;2023-12-28T00:06:15;5.33;;;2.70;;
3274;SDS011;1649;53.672;10.064;2023-12-28T00:08:41;6.33;;;3.00;;
3274;SDS011;1649;53.672;10.064;2023-12-28T00:11:06;8.60;;;3.10;;
3274;SDS011;1649;53.672;10.064;2023-12-28T00:13:32;7.83;;;3.30;;
3274;SDS011;1649;53.672;10.064;2023-12-28T00:15:58;5.37;;;3.10;;
3274;SDS011;1649;53.672;10.064;2023-12-28T00:18:23;5.50;;;2.63;;
3274;SDS011;1649;53.672;10.064;2023-12-28T00:20:49;8.60;;;3.53;;
3274;SDS011;1649;53.672;10.064;2023-12-28T00:23:15;6.37;;;3.20;;
3274;SDS011;1649;53.672;10.064;2023-12-28T00:25:40;6.43;;;2.93;;
3274;SDS011;1649;53.672;10.064;2023-12-28T00:28:06;6.97;;;3.17;;
3274;SDS011;1649;53.672;10.064;2023-12-28T00:30:31;6.20;;;3.17;;
3274;SDS011;1649;53.672;10.064;2023-12-28T00:32:57;8.07;;;3.30;;
3274;SDS011;1649;53.672;10.064;2023-12-28T00:35:23;8.23;;;3.20;;
3274;SDS011;1649;53.672;10.064;2023-12-28T00:37:48;5.60;;;2.90;;
3274;SDS011;1649;53.672;10.064;2023-12-28T00:40:14;5.87;;;2.80;;
3274;SDS011;1649;53.672;10.064;2023-12-28T00:42:39;6.83;;;3.00;;
3274;SDS011;1649;53.672;10.064;2023-12-28T00:45:06;6.67;;;3.30;;
3274;SDS011;1649;53.672;10.064;2023-12-28T00:47:32;5.73;;;2.80;;
3274;SDS011;1649;53.672;10.064;2023-12-28T00:49:57;6.93;;;3.20;;
3274;SDS011;1649;53.672;10.064;2023-12-28T00:52:23;5.43;;;3.00;;
3274;SDS011;1649;53.672;10.064;2023-12-28T00:54:48;6.10;;;3.00;;
3274;SDS011;1649;53.672;10.064;2023-12-28T00:57:14;8.20;;;3.70;;
3274;SDS011;1649;53.672;10.064;2023-12-28T00:59:39;6.57;;;2.93;;
3274;SDS011;1649;53.672;10.064;2023-12-28T01:02:05;5.13;;;3.17;;
3274;SDS011;1649;53.672;10.064;2023-12-28T01:04:30;7.33;;;3.57;;
3274;SDS011;1649;53.672;10.064;2023-12-28T01:06:56;5.80;;;3.40;;
3274;SDS011;1649;53.672;10.064;2023-12-28T01:09:23;6.03;;;3.13;;
3274;SDS011;1649;53.672;10.064;2023-12-28T01:11:49;7.30;;;3.37;;
3274;SDS011;1649;53.672;10.064;2023-12-28T01:14:14;8.70;;;3.67;;
3274;SDS011;1649;53.672;10.064;2023-12-28T01:16:39;6.30;;;3.40;;
3274;SDS011;1649;53.672;10.064;2023-12-28T01:19:05;8.60;;;3.50;;
3274;SDS011;1649;53.672;10.064;2023-12-28T01:21:31;8.07;;;3.83;;
3274;SDS011;1649;53.672;10.064;2023-12-28T01:23:56;5.40;;;3.03;;
3274;SDS011;1649;53.672;10.064;2023-12-28T01:26:22;6.10;;;2.73;;
3274;SDS011;1649;53.672;10.064;2023-12-28T01:28:47;7.37;;;3.13;;
3274;SDS011;1649;53.672;10.064;2023-12-28T01:31:13;6.93;;;3.60;;
3274;SDS011;1649;53.672;10.064;2023-12-28T01:33:38;11.33;;;3.40;;
3274;SDS011;1649;53.672;10.064;2023-12-28T01:36:21;7.57;;;3.53;;
3274;SDS011;1649;53.672;10.064;2023-12-28T01:38:47;6.20;;;3.43;;
3274;SDS011;1649;53.672;10.064;2023-12-28T01:41:12;6.27;;;3.27;;
3274;SDS011;1649;53.672;10.064;2023-12-28T01:43:40;7.50;;;3.87;;
3274;SDS011;1649;53.672;10.064;2023-12-28T01:46:09;8.17;;;3.53;;
3274;SDS011;1649;53.672;10.064;2023-12-28T01:48:40;8.27;;;3.70;;
3274;SDS011;1649;53.672;10.064;2023-12-28T01:51:07;7.40;;;3.67;;
3274;SDS011;1649;53.672;10.064;2023-12-28T01:53:32;6.90;;;3.80;;
3274;SDS011;1649;53.672;10.064;2023-12-28T01:55:58;8.80;;;3.70;;
3274;SDS011;1649;53.672;10.064;2023-12-28T01:58:24;8.27;;;3.50;;
3274;SDS011;1649;53.672;10.064;2023-12-28T02:00:55;7.03;;;4.17;;
3274;SDS011;1649;53.672;10.064;2023-12-28T02:03:21;8.63;;;3.37;;
3274;SDS011;1649;53.672;10.064;2023-12-28T02:05:47;6.23;;;3.37;;
3274;SDS011;1649;53.672;10.064;2023-12-28T02:08:13;8.90;;;4.30;;
3274;SDS011;1649;53.672;10.064;2023-12-28T02:10:38;7.63;;;3.70;;
3274;SDS011;1649;53.672;10.064;2023-12-28T02:13:04;7.70;;;4.17;;
3274;SDS011;1649;53.672;10.064;2023-12-28T02:15:30;9.17;;;4.93;;
3274;SDS011;1649;53.672;10.064;2023-12-28T02:18:00;6.50;;;3.93;;
3274;SDS011;1649;53.672;10.064;2023-12-28T02:20:30;8.00;;;4.80;;
3274;SDS011;1649;53.672;10.064;2023-12-28T02:22:56;8.27;;;3.87;;
3274;SDS011;1649;53.672;10.064;2023-12-28T02:25:22;6.10;;;3.53;;
3274;SDS011;1649;53.672;10.064;2023-12-28T02:27:48;11.63;;;3.27;;
3274;SDS011;1649;53.672;10.064;2023-12-28T02:30:18;6.77;;;3.73;;
3274;SDS011;1649;53.672;10.064;2023-12-28T02:32:55;8.17;;;3.90;;
3274;SDS011;1649;53.672;10.064;2023-12-28T02:35:37;6.80;;;4.30;;
3274;SDS011;1649;53.672;10.064;2023-12-28T02:38:11;9.23;;;4.30;;
3274;SDS011;1649;53.672;10.064;2023-12-28T02:40:40;9.17;;;5.00;;
3274;SDS011;1649;53.672;10.064;2023-12-28T02:43:08;9.40;;;4.80;;
3274;SDS011;1649;53.672;10.064;2023-12-28T02:45:35;7.80;;;4.73;;
3274;SDS011;1649;53.672;10.064;2023-12-28T02:48:01;9.03;;;4.27;;
3274;SDS011;1649;53.672;10.064;2023-12-28T02:50:27;7.83;;;4.13;;
3274;SDS011;1649;53.672;10.064;2023-12-28T02:52:55;7.80;;;4.53;;
3274;SDS011;1649;53.672;10.064;2023-12-28T02:55:20;7.07;;;3.70;;
3274;SDS011;1649;53.672;10.064;2023-12-28T02:57:46;8.20;;;3.80;;
3274;SDS011;1649;53.672;10.064;2023-12-28T03:00:11;8.67;;;4.50;;
3274;SDS011;1649;53.672;10.064;2023-12-28T03:02:37;8.03;;;4.47;;
3274;SDS011;1649;53.672;10.064;2023-12-28T03:05:06;8.37;;;4.10;;
3274;SDS011;1649;53.672;10.064;2023-12-28T03:07:32;7.10;;;4.17;;
3274;SDS011;1649;53.672;10.064;2023-12-28T03:09:59;6.40;;;3.70;;
3274;SDS011;1649;53.672;10.064;2023-12-28T03:12:24;7.83;;;4.33;;
3274;SDS011;1649;53.672;10.064;2023-12-28T03:14:50;7.50;;;3.83;;
3274;SDS011;1649;53.672;10.064;2023-12-28T03:17:16;7.80;;;4.17;;
3274;SDS011;1649;53.672;10.064;2023-12-28T03:19:41;7.70;;;4.43;;
3274;SDS011;1649;53.672;10.064;2023-12-28T03:22:07;6.30;;;3.80;;
3274;SDS011;1649;53.672;10.064;2023-12-28T03:24:32;8.60;;;4.47;;
3274;SDS011;1649;53.672;10.064;2023-12-28T03:26:58;7.67;;;4.33;;
3274;SDS011;1649;53.672;10.064;2023-12-28T03:29:23;9.03;;;4.47;;
3274;SDS011;1649;53.672;10.064;2023-12-28T03:31:49;8.70;;;4.50;;
3274;SDS011;1649;53.672;10.064;2023-12-28T03:34:15;9.07;;;4.53;;
3274;SDS011;1649;53.672;10.064;2023-12-28T03:36:40;7.57;;;5.07;;
3274;SDS011;1649;53.672;10.064;2023-12-28T03:39:06;9.77;;;4.70;;
3274;SDS011;1649;53.672;10.064;2023-12-28T03:41:33;8.87;;;5.03;;
3274;SDS011;1649;53.672;10.064;2023-12-28T03:43:58;8.70;;;4.10;;
3274;SDS011;1649;53.672;10.064;2023-12-28T03:46:24;10.00;;;4.00;;
3274;SDS011;1649;53.672;10.064;2023-12-28T03:48:50;6.00;;;3.90;;
3274;SDS011;1649;53.672;10.064;2023-12-28T03:51:16;9.23;;;4.87;;
3274;SDS011;1649;53.672;10.064;2023-12-28T03:53:42;9.63;;;4.57;;
3274;SDS011;1649;53.672;10.064;2023-12-28T03:56:07;7.77;;;4.50;;
3274;SDS011;1649;53.672;10.064;2023-12-28T03:58:33;8.00;;;4.37;;
3274;SDS011;1649;53.672;10.064;2023-12-28T04:00:58;8.63;;;4.63;;
3274;SDS011;1649;53.672;10.064;2023-12-28T04:03:24;9.23;;;5.07;;
3274;SDS011;1649;53.672;10.064;2023-12-28T04:05:50;11.63;;;4.60;;
3274;SDS011;1649;53.672;10.064;2023-12-28T04:08:15;7.53;;;4.40;;
3274;SDS011;1649;53.672;10.064;2023-12-28T04:10:41;9.27;;;4.27;;
3274;SDS011;1649;53.672;10.064;2023-12-28T04:13:07;9.30;;;4.67;;
3274;SDS011;1649;53.672;10.064;2023-12-28T04:15:32;9.97;;;4.37;;
3274;SDS011;1649;53.672;10.064;2023-12-28T04:17:57;9.43;;;4.60;;
3274;SDS011;1649;53.672;10.064;2023-12-28T04:20:23;9.63;;;4.57;;
3274;SDS011;1649;53.672;10.064;2023-12-28T04:22:49;8.50;;;4.20;;
3274;SDS011;1649;53.672;10.064;2023-12-28T04:25:14;10.97;;;4.30;;
3274;SDS011;1649;53.672;10.064;2023-12-28T04:27:41;11.50;;;4.97;;
3274;SDS011;1649;53.672;10.064;2023-12-28T04:30:07;10.97;;;5.20;;
3274;SDS011;1649;53.672;10.064;2023-12-28T04:32:36;8.73;;;4.40;;
3274;SDS011;1649;53.672;10.064;2023-12-28T04:35:02;9.77;;;4.60;;
3274;SDS011;1649;53.672;10.064;2023-12-28T04:37:28;10.77;;;4.73;;
3274;SDS011;1649;53.672;10.064;2023-12-28T04:39:55;9.47;;;4.63;;
3274;SDS011;1649;53.672;10.064;2023-12-28T04:42:21;8.13;;;4.20;;
3274;SDS011;1649;53.672;10.064;2023-12-28T04:44:47;9.30;;;4.50;;
3274;SDS011;1649;53.672;10.064;2023-12-28T04:47:12;9.37;;;4.37;;
3274;SDS011;1649;53.672;10.064;2023-12-28T04:49:38;7.67;;;4.57;;
3274;SDS011;1649;53.672;10.064;2023-12-28T04:52:03;7.67;;;4.03;;
3274;SDS011;1649;53.672;10.064;2023-12-28T04:54:29;9.40;;;4.73;;
3274;SDS011;1649;53.672;10.064;2023-12-28T04:56:54;8.27;;;4.40;;
3274;SDS011;1649;53.672;10.064;2023-12-28T04:59:20;8.50;;;4.03;;
3274;SDS011;1649;53.672;10.064;2023-12-28T05:01:45;8.33;;;4.23;;
3274;SDS011;1649;53.672;10.064;2023-12-28T05:04:11;6.63;;;3.90;;
3274;SDS011;1649;53.672;10.064;2023-12-28T05:06:37;9.43;;;4.43;;
3274;SDS011;1649;53.672;10.064;2023-12-28T05:09:03;12.63;;;4.90;;
3274;SDS011;1649;53.672;10.064;2023-12-28T05:11:29;7.83;;;4.10;;
3274;SDS011;1649;53.672;10.064;2023-12-28T05:13:55;13.20;;;4.90;;
3274;SDS011;1649;53.672;10.064;2023-12-28T05:16:20;8.30;;;4.33;;
3274;SDS011;1649;53.672;10.064;2023-12-28T05:18:46;8.63;;;3.80;;
3274;SDS011;1649;53.672;10.064;2023-12-28T05:21:12;8.77;;;4.87;;
3274;SDS011;1649;53.672;10.064;2023-12-28T05:23:38;7.53;;;4.00;;
3274;SDS011;1649;53.672;10.064;2023-12-28T05:26:03;10.77;;;4.27;;
3274;SDS011;1649;53.672;10.064;2023-12-28T05:28:29;8.70;;;5.10;;
3274;SDS011;1649;53.672;10.064;2023-12-28T05:30:55;8.20;;;4.50;;
3274;SDS011;1649;53.672;10.064;2023-12-28T05:33:20;8.93;;;4.80;;
3274;SDS011;1649;53.672;10.064;2023-12-28T05:35:46;12.10;;;4.50;;
3274;SDS011;1649;53.672;10.064;2023-12-28T05:38:11;8.70;;;5.40;;
3274;SDS011;1649;53.672;10.064;2023-12-28T05:40:37;9.07;;;4.67;;
3274;SDS011;1649;53.672;10.064;2023-12-28T05:43:02;8.37;;;4.70;;
3274;SDS011;1649;53.672;10.064;2023-12-28T05:45:28;10.77;;;5.07;;
3274;SDS011;1649;53.672;10.064;2023-12-28T05:47:53;8.90;;;4.83;;
3274;SDS011;1649;53.672;10.064;2023-12-28T05:50:19;9.80;;;4.50;;
3274;SDS011;1649;53.672;10.064;2023-12-28T05:52:44;11.73;;;5.23;;
3274;SDS011;1649;53.672;10.064;2023-12-28T05:55:10;10.73;;;4.73;;
3274;SDS011;1649;53.672;10.064;2023-12-28T05:57:35;12.23;;;4.90;;
3274;SDS011;1649;53.672;10.064;2023-12-28T06:00:01;7.80;;;4.40;;
3274;SDS011;1649;53.672;10.064;2023-12-28T06:02:29;10.23;;;4.30;;
3274;SDS011;1649;53.672;10.064;2023-12-28T06:04:54;9.17;;;4.57;;
3274;SDS011;1649;53.672;10.064;2023-12-28T06:07:19;9.13;;;4.40;;
3274;SDS011;1649;53.672;10.064;2023-12-28T06:09:45;8.47;;;4.80;;
3274;SDS011;1649;53.672;10.064;2023-12-28T06:12:11;8.83;;;4.17;;
3274;SDS011;1649;53.672;10.064;2023-12-28T06:14:37;7.53;;;4.40;;
3274;SDS011;1649;53.672;10.064;2023-12-28T06:17:02;12.00;;;4.87;;
3274;SDS011;1649;53.672;10.064;2023-12-28T06:19:28;7.07;;;3.53;;
3274;SDS011;1649;53.672;10.064;2023-12-28T06:21:53;7.47;;;4.70;;
3274;SDS011;1649;53.672;10.064;2023-12-28T06:24:19;7.50;;;4.07;;
3274;SDS011;1649;53.672;10.064;2023-12-28T06:26:44;8.83;;;4.40;;
3274;SDS011;1649;53.672;10.064;2023-12-28T06:29:10;8.90;;;3.70;;
3274;SDS011;1649;53.672;10.064;2023-12-28T06:31:36;9.20;;;4.40;;
3274;SDS011;1649;53.672;10.064;2023-12-28T06:34:05;7.87;;;3.30;;
3274;SDS011;1649;53.672;10.064;2023-12-28T06:36:31;7.50;;;4.10;;
3274;SDS011;1649;53.672;10.064;2023-12-28T06:38:57;7.47;;;4.20;;
3274;SDS011;1649;53.672;10.064;2023-12-28T06:41:23;9.30;;;4.30;;
3274;SDS011;1649;53.672;10.064;2023-12-28T06:43:49;9.60;;;4.97;;
3274;SDS011;1649;53.672;10.064;2023-12-28T06:46:15;7.87;;;4.33;;
3274;SDS011;1649;53.672;10.064;2023-12-28T06:48:40;8.17;;;3.77;;
3274;SDS011;1649;53.672;10.064;2023-12-28T06:51:06;10.37;;;4.10;;
3274;SDS011;1649;53.672;10.064;2023-12-28T06:53:33;9.00;;;4.20;;
3274;SDS011;1649;53.672;10.064;2023-12-28T06:55:58;8.50;;;4.60;;
3274;SDS011;1649;53.672;10.064;2023-12-28T06:58:24;6.50;;;4.30;;
3274;SDS011;1649;53.672;10.064;2023-12-28T07:00:49;9.17;;;4.90;;
3274;SDS011;1649;53.672;10.064;2023-12-28T07:03:14;11.50;;;5.00;;
3274;SDS011;1649;53.672;10.064;2023-12-28T07:05:40;5.47;;;2.60;;
3274;SDS011;1649;53.672;10.064;2023-12-28T07:08:05;7.50;;;4.00;;
3274;SDS011;1649;53.672;10.064;2023-12-28T07:10:31;7.33;;;3.70;;
3274;SDS011;1649;53.672;10.064;2023-12-28T07:12:56;8.33;;;4.33;;
3274;SDS011;1649;53.672;10.064;2023-12-28T07:15:22;7.20;;;3.50;;
3274;SDS011;1649;53.672;10.064;2023-12-28T07:17:47;6.37;;;3.60;;
3274;SDS011;1649;53.672;10.064;2023-12-28T07:20:13;9.57;;;4.67;;
3274;SDS011;1649;53.672;10.064;2023-12-28T07:22:38;9.13;;;4.10;;
3274;SDS011;1649;53.672;10.064;2023-12-28T07:25:07;11.10;;;3.83;;
3274;SDS011;1649;53.672;10.064;2023-12-28T07:27:34;6.87;;;4.43;;
3274;SDS011;1649;53.672;10.064;2023-12-28T07:30:00;7.63;;;3.50;;
3274;SDS011;1649;53.672;10.064;2023-12-28T07:32:26;9.63;;;3.50;;
3274;SDS011;1649;53.672;10.064;2023-12-28T07:34:53;6.93;;;3.43;;
3274;SDS011;1649;53.672;10.064;2023-12-28T07:37:19;9.17;;;3.73;;
3274;SDS011;1649;53.672;10.064;2023-12-28T07:39:44;10.40;;;2.90;;
3274;SDS011;1649;53.672;10.064;2023-12-28T07:42:10;8.40;;;3.90;;
3274;SDS011;1649;53.672;10.064;2023-12-28T07:44:35;5.23;;;2.97;;
3274;SDS011;1649;53.672;10.064;2023-12-28T07:47:01;6.37;;;3.13;;
3274;SDS011;1649;53.672;10.064;2023-12-28T07:49:26;7.97;;;3.43;;
3274;SDS011;1649;53.672;10.064;2023-12-28T07:51:52;9.87;;;4.73;;
3274;SDS011;1649;53.672;10.064;2023-12-28T07:54:17;8.00;;;3.93;;
3274;SDS011;1649;53.672;10.064;2023-12-28T07:56:43;11.30;;;3.90;;
3274;SDS011;1649;53.672;10.064;2023-12-28T07:59:09;9.60;;;3.93;;
3274;SDS011;1649;53.672;10.064;2023-12-28T08:01:34;5.70;;;3.60;;
3274;SDS011;1649;53.672;10.064;2023-12-28T08:04:00;6.40;;;3.67;;
3274;SDS011;1649;53.672;10.064;2023-12-28T08:06:26;9.23;;;4.03;;
3274;SDS011;1649;53.672;10.064;2023-12-28T08:08:54;7.67;;;3.53;;
3274;SDS011;1649;53.672;10.064;2023-12-28T08:11:19;8.60;;;3.90;;
3274;SDS011;1649;53.672;10.064;2023-12-28T08:13:45;8.40;;;3.93;;
3274;SDS011;1649;53.672;10.064;2023-12-28T08:16:11;9.13;;;3.93;;
3274;SDS011;1649;53.672;10.064;2023-12-28T08:18:37;8.23;;;3.60;;
3274;SDS011;1649;53.672;10.064;2023-12-28T08:21:02;8.57;;;3.00;;
3274;SDS011;1649;53.672;10.064;2023-12-28T08:23:28;7.03;;;3.53;;
3274;SDS011;1649;53.672;10.064;2023-12-28T08:25:53;9.07;;;3.40;;
3274;SDS011;1649;53.672;10.064;2023-12-28T08:28:19;8.17;;;3.47;;
3274;SDS011;1649;53.672;10.064;2023-12-28T08:30:44;8.03;;;3.63;;
3274;SDS011;1649;53.672;10.064;2023-12-28T08:33:10;8.47;;;3.43;;
3274;SDS011;1649;53.672;10.064;2023-12-28T08:35:35;12.47;;;3.63;;
3274;SDS011;1649;53.672;10.064;2023-12-28T08:38:01;7.43;;;3.63;;
3274;SDS011;1649;53.672;10.064;2023-12-28T08:40:26;11.37;;;3.40;;
3274;SDS011;1649;53.672;10.064;2023-12-28T08:42:51;8.53;;;3.40;;
3274;SDS011;1649;53.672;10.064;2023-12-28T08:45:17;7.03;;;3.00;;
3274;SDS011;1649;53.672;10.064;2023-12-28T08:47:42;6.80;;;2.70;;
3274;SDS011;1649;53.672;10.064;2023-12-28T08:50:08;6.30;;;3.03;;
3274;SDS011;1649;53.672;10.064;2023-12-28T08:52:34;8.60;;;2.73;;
3274;SDS011;1649;53.672;10.064;2023-12-28T08:54:59;9.90;;;3.47;;
3274;SDS011;1649;53.672;10.064;2023-12-28T08:57:26;8.07;;;2.93;;
3274;SDS011;1649;53.672;10.064;2023-12-28T08:59:51;10.67;;;3.27;;
3274;SDS011;1649;53.672;10.064;2023-12-28T09:02:17;12.13;;;3.67;;
3274;SDS011;1649;53.672;10.064;2023-12-28T09:04:42;8.03;;;2.60;;
3274;SDS011;1649;53.672;10.064;2023-12-28T09:07:08;9.43;;;2.97;;
3274;SDS011;1649;53.672;10.064;2023-12-28T09:09:34;5.20;;;2.70;;
3274;SDS011;1649;53.672;10.064;2023-12-28T09:12:00;8.60;;;2.73;;
3274;SDS011;1649;53.672;10.064;2023-12-28T09:14:25;12.10;;;3.07;;
3274;SDS011;1649;53.672;10.064;2023-12-28T09:16:51;9.30;;;3.37;;
3274;SDS011;1649;53.672;10.064;2023-12-28T09:19:16;8.87;;;3.53;;
3274;SDS011;1649;53.672;10.064;2023-12-28T09:21:42;8.77;;;3.20;;
3274;SDS011;1649;53.672;10.064;2023-12-28T09:24:07;7.17;;;2.70;;
3274;SDS011;1649;53.672;10.064;2023-12-28T09:26:33;10.63;;;2.83;;
3274;SDS011;1649;53.672;10.064;2023-12-28T09:28:58;9.90;;;3.40;;
3274;SDS011;1649;53.672;10.064;2023-12-28T09:31:24;15.00;;;3.17;;
3274;SDS011;1649;53.672;10.064;2023-12-28T09:33:50;9.50;;;2.70;;
3274;SDS011;1649;53.672;10.064;2023-12-28T09:36:15;12.60;;;2.87;;
3274;SDS011;1649;53.672;10.064;2023-12-28T09:38:41;8.53;;;2.57;;
3274;SDS011;1649;53.672;10.064;2023-12-28T09:41:13;8.43;;;2.77;;
3274;SDS011;1649;53.672;10.064;2023-12-28T09:43:41;11.40;;;3.60;;
3274;SDS011;1649;53.672;10.064;2023-12-28T09:46:17;6.90;;;3.07;;
3274;SDS011;1649;53.672;10.064;2023-12-28T09:48:43;13.80;;;3.33;;
3274;SDS011;1649;53.672;10.064;2023-12-28T09:51:09;8.50;;;2.80;;
3274;SDS011;1649;53.672;10.064;2023-12-28T09:53:35;11.00;;;2.50;;
3274;SDS011;1649;53.672;10.064;2023-12-28T09:56:01;8.30;;;2.97;;
3274;SDS011;1649;53.672;10.064;2023-12-28T09:58:28;8.10;;;2.60;;
3274;SDS011;1649;53.672;10.064;2023-12-28T10:00:56;6.00;;;2.70;;
3274;SDS011;1649;53.672;10.064;2023-12-28T10:03:22;12.57;;;3.00;;
3274;SDS011;1649;53.672;10.064;2023-12-28T10:05:47;13.93;;;2.63;;
3274;SDS011;1649;53.672;10.064;2023-12-28T10:08:13;11.17;;;3.03;;
3274;SDS011;1649;53.672;10.064;2023-12-28T10:10:40;6.60;;;2.20;;
3274;SDS011;1649;53.672;10.064;2023-12-28T10:13:07;9.03;;;2.60;;
3274;SDS011;1649;53.672;10.064;2023-12-28T10:15:33;9.23;;;2.93;;
3274;SDS011;1649;53.672;10.064;2023-12-28T10:17:59;10.23;;;2.50;;
3274;SDS011;1649;53.672;10.064;2023-12-28T10:20:28;9.43;;;2.40;;
3274;SDS011;1649;53.672;10.064;2023-12-28T10:22:53;6.77;;;2.10;;
3274;SDS011;1649;53.672;10.064;2023-12-28T10:25:19;10.00;;;2.63;;
3274;SDS011;1649;53.672;10.064;2023-12-28T10:27:45;11.17;;;2.80;;
3274;SDS011;1649;53.672;10.064;2023-12-28T10:30:11;11.43;;;2.70;;
3274;SDS011;1649;53.672;10.064;2023-12-28T10:32:40;8.13;;;2.60;;
3274;SDS011;1649;53.672;10.064;2023-12-28T10:35:06;8.03;;;2.23;;
3274;SDS011;1649;53.672;10.064;2023-12-28T10:37:32;5.70;;;2.60;;
3274;SDS011;1649;53.672;10.064;2023-12-28T10:40:00;12.27;;;2.67;;
3274;SDS011;1649;53.672;10.064;2023-12-28T10:42:34;11.87;;;2.53;;
3274;SDS011;1649;53.672;10.064;2023-12-28T10:45:09;12.50;;;3.07;;
3274;SDS011;1649;53.672;10.064;2023-12-28T10:47:38;8.47;;;2.37;;
3274;SDS011;1649;53.672;10.064;2023-12-28T10:50:11;11.20;;;2.80;;
3274;SDS011;1649;53.672;10.064;2023-12-28T10:52:37;8.13;;;2.80;;
3274;SDS011;1649;53.672;10.064;2023-12-28T10:55:18;10.93;;;3.20;;
3274;SDS011;1649;53.672;10.064;2023-12-28T10:58:05;8.10;;;2.80;;
3274;SDS011;1649;53.672;10.064;2023-12-28T11:00:56;7.70;;;2.30;;
3274;SDS011;1649;53.672;10.064;2023-12-28T11:03:28;6.07;;;1.97;;
3274;SDS011;1649;53.672;10.064;2023-12-28T11:05:58;9.30;;;2.73;;
3274;SDS011;1649;53.672;10.064;2023-12-28T11:08:24;9.57;;;3.03;;
3274;SDS011;1649;53.672;10.064;2023-12-28T11:10:50;10.63;;;3.07;;
3274;SDS011;1649;53.672;10.064;2023-12-28T11:13:17;9.70;;;3.00;;
3274;SDS011;1649;53.672;10.064;2023-12-28T11:15:44;9.80;;;2.90;;
3274;SDS011;1649;53.672;10.064;2023-12-28T11:18:11;8.63;;;3.27;;
3274;SDS011;1649;53.672;10.064;2023-12-28T11:20:43;10.03;;;2.90;;
3274;SDS011;1649;53.672;10.064;2023-12-28T11:23:09;9.93;;;2.40;;
3274;SDS011;1649;53.672;10.064;2023-12-28T11:25:36;11.37;;;3.03;;
3274;SDS011;1649;53.672;10.064;2023-12-28T11:28:08;6.50;;;2.23;;
3274;SDS011;1649;53.672;10.064;2023-12-28T11:30:34;13.60;;;3.50;;
3274;SDS011;1649;53.672;10.064;2023-12-28T11:33:01;10.43;;;2.73;;
3274;SDS011;1649;53.672;10.064;2023-12-28T11:35:35;10.57;;;3.10;;
3274;SDS011;1649;53.672;10.064;2023-12-28T11:38:03;11.00;;;2.40;;
3274;SDS011;1649;53.672;10.064;2023-12-28T11:40:39;18.70;;;3.17;;
3274;SDS011;1649;53.672;10.064;2023-12-28T11:43:15;10.20;;;3.60;;
3274;SDS011;1649;53.672;10.064;2023-12-28T11:45:51;9.50;;;2.87;;
3274;SDS011;1649;53.672;10.064;2023-12-28T11:48:26;15.00;;;2.87;;
3274;SDS011;1649;53.672;10.064;2023-12-28T11:50:56;9.93;;;2.40;;
3274;SDS011;1649;53.672;10.064;2023-12-28T11:53:23;12.50;;;3.50;;
3274;SDS011;1649;53.672;10.064;2023-12-28T11:55:49;13.63;;;3.47;;
3274;SDS011;1649;53.672;10.064;2023-12-28T11:58:16;16.40;;;2.80;;
3274;SDS011;1649;53.672;10.064;2023-12-28T12:00:42;12.10;;;2.70;;
3274;SDS011;1649;53.672;10.064;2023-12-28T12:03:09;13.87;;;3.53;;
3274;SDS011;1649;53.672;10.064;2023-12-28T12:05:36;10.47;;;2.97;;
3274;SDS011;1649;53.672;10.064;2023-12-28T12:08:01;12.53;;;2.47;;
3274;SDS011;1649;53.672;10.064;2023-12-28T12:10:27;11.37;;;2.87;;
3274;SDS011;1649;53.672;10.064;2023-12-28T12:12:52;9.00;;;2.60;;
3274;SDS011;1649;53.672;10.064;2023-12-28T12:15:18;10.40;;;3.00;;
3274;SDS011;1649;53.672;10.064;2023-12-28T12:17:44;9.17;;;3.30;;
3274;SDS011;1649;53.672;10.064;2023-12-28T12:20:09;9.20;;;2.97;;
3274;SDS011;1649;53.672;10.064;2023-12-28T12:22:35;11.50;;;2.80;;
3274;SDS011;1649;53.672;10.064;2023-12-28T12:25:01;11.63;;;3.03;;
3274;SDS011;1649;53.672;10.064;2023-12-28T12:27:30;14.57;;;3.27;;
3274;SDS011;1649;53.672;10.064;2023-12-28T12:29:56;14.27;;;3.07;;
3274;SDS011;1649;53.672;10.064;2023-12-28T12:32:21;11.60;;;2.90;;
3274;SDS011;1649;53.672;10.064;2023-12-28T12:34:47;8.33;;;3.20;;
3274;SDS011;1649;53.672;10.064;2023-12-28T12:37:13;12.23;;;3.00;;
3274;SDS011;1649;53.672;10.064;2023-12-28T12:39:38;22.17;;;3.70;;
3274;SDS011;1649;53.672;10.064;2023-12-28T12:42:04;18.60;;;3.87;;
3274;SDS011;1649;53.672;10.064;2023-12-28T12:44:30;15.77;;;3.33;;
3274;SDS011;1649;53.672;10.064;2023-12-28T12:46:59;15.93;;;3.37;;
3274;SDS011;1649;53.672;10.064;2023-12-28T12:49:25;17.13;;;4.00;;
3274;SDS011;1649;53.672;10.064;2023-12-28T12:51:50;11.50;;;2.77;;
3274;SDS011;1649;53.672;10.064;2023-12-28T12:54:16;17.40;;;3.60;;
3274;SDS011;1649;53.672;10.064;2023-12-28T12:56:45;14.93;;;3.07;;
3274;SDS011;1649;53.672;10.064;2023-12-28T12:59:11;15.07;;;3.20;;
3274;SDS011;1649;53.672;10.064;2023-12-28T13:01:42;15.07;;;3.63;;
3274;SDS011;1649;53.672;10.064;2023-12-28T13:04:08;12.70;;;3.43;;
3274;SDS011;1649;53.672;10.064;2023-12-28T13:06:34;13.23;;;2.80;;
3274;SDS011;1649;53.672;10.064;2023-12-28T13:08:59;18.53;;;3.87;;
3274;SDS011;1649;53.672;10.064;2023-12-28T13:11:25;13.40;;;3.23;;
3274;SDS011;1649;53.672;10.064;2023-12-28T13:13:51;11.20;;;3.37;;
3274;SDS011;1649;53.672;10.064;2023-12-28T13:16:19;14.37;;;3.57;;
3274;SDS011;1649;53.672;10.064;2023-12-28T13:18:45;14.43;;;3.10;;
3274;SDS011;1649;53.672;10.064;2023-12-28T13:21:10;10.87;;;3.40;;
3274;SDS011;1649;53.672;10.064;2023-12-28T13:23:37;12.30;;;2.87;;
3274;SDS011;1649;53.672;10.064;2023-12-28T13:26:03;12.60;;;3.27;;
3274;SDS011;1649;53.672;10.064;2023-12-28T13:28:28;10.30;;;2.83;;
3274;SDS011;1649;53.672;10.064;2023-12-28T13:30:54;14.03;;;2.90;;
3274;SDS011;1649;53.672;10.064;2023-12-28T13:33:20;8.27;;;3.03;;
3274;SDS011;1649;53.672;10.064;2023-12-28T13:35:46;7.63;;;2.60;;
3274;SDS011;1649;53.672;10.064;2023-12-28T13:38:12;13.50;;;3.07;;
3274;SDS011;1649;53.672;10.064;2023-12-28T13:40:37;12.10;;;2.70;;
3274;SDS011;1649;53.672;10.064;2023-12-28T13:43:03;12.50;;;3.27;;
3274;SDS011;1649;53.672;10.064;2023-12-28T13:45:28;12.63;;;2.93;;
3274;SDS011;1649;53.672;10.064;2023-12-28T13:47:54;11.97;;;2.83;;
3274;SDS011;1649;53.672;10.064;2023-12-28T13:50:19;11.07;;;2.37;;
3274;SDS011;1649;53.672;10.064;2023-12-28T13:52:45;11.70;;;3.37;;
3274;SDS011;1649;53.672;10.064;2023-12-28T13:55:11;9.13;;;2.30;;
3274;SDS011;1649;53.672;10.064;2023-12-28T13:57:36;8.80;;;2.30;;
3274;SDS011;1649;53.672;10.064;2023-12-28T14:00:02;12.30;;;2.77;;
3274;SDS011;1649;53.672;10.064;2023-12-28T14:02:28;14.00;;;3.10;;
3274;SDS011;1649;53.672;10.064;2023-12-28T14:04:54;12.63;;;3.70;;
3274;SDS011;1649;53.672;10.064;2023-12-28T14:07:21;17.03;;;3.30;;
3274;SDS011;1649;53.672;10.064;2023-12-28T14:09:47;13.23;;;3.23;;
3274;SDS011;1649;53.672;10.064;2023-12-28T14:12:12;13.03;;;2.60;;
3274;SDS011;1649;53.672;10.064;2023-12-28T14:14:38;21.23;;;3.60;;
3274;SDS011;1649;53.672;10.064;2023-12-28T14:17:03;12.57;;;3.13;;
3274;SDS011;1649;53.672;10.064;2023-12-28T14:19:29;9.60;;;2.87;;
3274;SDS011;1649;53.672;10.064;2023-12-28T14:21:55;15.27;;;3.43;;
3274;SDS011;1649;53.672;10.064;2023-12-28T14:24:21;11.47;;;3.10;;
3274;SDS011;1649;53.672;10.064;2023-12-28T14:26:47;11.10;;;2.83;;
3274;SDS011;1649;53.672;10.064;2023-12-28T14:29:16;8.93;;;2.93;;
3274;SDS011;1649;53.672;10.064;2023-12-28T14:31:42;11.90;;;3.27;;
3274;SDS011;1649;53.672;10.064;2023-12-28T14:34:09;10.70;;;3.00;;
3274;SDS011;1649;53.672;10.064;2023-12-28T14:36:35;10.00;;;3.00;;
3274;SDS011;1649;53.672;10.064;2023-12-28T14:39:03;12.07;;;3.40;;
3274;SDS011;1649;53.672;10.064;2023-12-28T14:41:35;14.93;;;4.27;;
3274;SDS011;1649;53.672;10.064;2023-12-28T14:44:02;15.40;;;2.73;;
3274;SDS011;1649;53.672;10.064;2023-12-28T14:46:28;13.10;;;2.93;;
3274;SDS011;1649;53.672;10.064;2023-12-28T14:48:54;9.20;;;3.10;;
3274;SDS011;1649;53.672;10.064;2023-12-28T14:51:21;9.30;;;2.93;;
3274;SDS011;1649;53.672;10.064;2023-12-28T14:53:47;14.40;;;3.13;;